Jonni Ritscher — A8JT7 — position and weather

sailwx.info

Track history (hours):
 
Tides and Currents Weather Stations Pressure Air Temp Water Temp Dewpoint Dewpoint Depression Visibility Wind Speed Wind Dir Waves Ship Positions

Jonni Ritscher

Last reported at 2014-Nov-01 09:17 UTC. Time now 2014-Nov-01 11:41 UTC.
Position N 59°42' E 023°44'.

Length 178 m; draft 10 m.

Type: Ship. MMSI: 636091136.

Date/timePositionNaut miles runAvg speedWind from/ knotsBaromVisibWave heightAir tempDewpointWater temp
2014-Nov-01 09:17N 59°42' E 023°44'1317.3
2014-Nov-01 08:31N 59°46' E 024°09'1717.3
2014-Nov-01 07:33N 59°49' E 024°41'4117.3
2014-Nov-01 05:12N 59°57' E 026°01'1317.4
2014-Nov-01 04:27N 60°00' E 026°26'1616.9
2014-Nov-01 03:32N 59°60' E 026°57'9813.3
2014-Oct-31 20:07N 59°53' E 030°13'0 0.0
2014-Oct-31 08:03N 59°54' E 030°14'0 0.1
2014-Oct-31 06:21N 59°53' E 030°13'1 1.3
2014-Oct-31 05:33N 59°53' E 030°11'0 0.0
2014-Oct-31 02:31N 59°53' E 030°11'0 0.0
2014-Oct-31 01:25N 59°53' E 030°11'0 0.0
2014-Oct-31 00:21N 59°53' E 030°11'0 0.0
2014-Oct-30 21:05N 59°53' E 030°11'0 0.0
2014-Oct-30 20:29N 59°53' E 030°11'0 0.0
2014-Oct-30 19:28N 59°53' E 030°11'0 0.0
2014-Oct-30 18:28N 59°53' E 030°11'0 0.0
2014-Oct-30 17:33N 59°53' E 030°11'0 0.1
2014-Oct-30 16:33N 59°53' E 030°12'0 0.0
2014-Oct-30 15:33N 59°53' E 030°12'1 1.5
2014-Oct-30 14:32N 59°54' E 030°09'78 3.0
2014-Oct-29 12:28N 60°08' E 027°36'1819.7
2014-Oct-29 11:33N 59°58' E 027°06'1919.4
2014-Oct-29 10:33N 59°58' E 026°27'6120.3
2014-Oct-29 07:33N 59°44' E 024°29'2020.3
2014-Oct-29 06:33N 59°38' E 023°50'2020.4
2014-Oct-29 05:33N 59°31' E 023°12'2020.0
2014-Oct-29 04:32N 59°24' E 022°34'2320.3
2014-Oct-29 03:23N 59°09' E 021°60'1820.8
2014-Oct-29 02:32N 58°57' E 021°34'4320.6
2014-Oct-29 00:27N 58°23' E 020°45'1920.5
2014-Oct-28 23:31N 58°08' E 020°23'3020.6
2014-Oct-28 22:03N 57°44' E 019°49'1020.5
2014-Oct-28 21:33N 57°36' E 019°37'2120.5
2014-Oct-28 20:33N 57°20' E 019°14'2120.7
2014-Oct-28 19:33N 57°03' E 018°51'2020.4
2014-Oct-28 18:33N 56°47' E 018°27'2120.4
2014-Oct-28 17:33N 56°35' E 017°58'2020.4
2014-Oct-28 16:33N 56°22' E 017°29'2120.3
2014-Oct-28 15:32N 56°09' E 016°59'2020.4
2014-Oct-28 14:32N 55°58' E 016°30'2020.5
2014-Oct-28 13:33N 55°48' E 015°58'2020.3
2014-Oct-28 12:33N 55°38' E 015°27'2020.5
2014-Oct-28 11:33N 55°28' E 014°55'2020.1
2014-Oct-28 10:33N 55°16' E 014°27'2020.3
2014-Oct-28 09:33N 55°00' E 014°04'2020.3
2014-Oct-28 08:33N 54°54' E 013°30'1817.5
2014-Oct-28 07:33N 54°49' E 013°01'1818.1
2014-Oct-28 06:33N 54°41' E 012°33'1716.8
2014-Oct-28 05:32N 54°28' E 012°13'1716.3
2014-Oct-28 04:30N 54°24' E 011°45'1717.7
2014-Oct-28 03:33N 54°32' E 011°19'1817.1
2014-Oct-28 02:30N 54°41' E 010°53'1616.5
2014-Oct-28 01:33N 54°57' E 010°57'1616.7
2014-Oct-28 00:33N 55°13' E 011°06'4715.7
2014-Oct-27 21:32N 55°60' E 011°02'1616.5
2014-Oct-27 20:33N 56°13' E 011°19'1817.0
2014-Oct-27 19:30N 56°29' E 011°35'1515.7
2014-Oct-27 18:33N 56°42' E 011°48'1615.7
2014-Oct-27 17:33N 56°57' E 011°44'1616.3
2014-Oct-27 16:34N 57°13' E 011°34'1616.2
2014-Oct-27 15:33N 57°28' E 011°23'1717.3
2014-Oct-27 14:34N 57°39' E 010°60'1717.2
2014-Oct-27 13:33N 57°49' E 010°32'1918.5
2014-Oct-27 12:33N 57°43' E 009°59'13717.2
2014-Oct-27 04:34N 55°54' E 007°26'1717.2
2014-Oct-27 03:33N 55°38' E 007°20'1717.2
2014-Oct-27 02:34N 55°21' E 007°25'1717.1
2014-Oct-27 01:33N 55°03' E 007°26'1717.0
2014-Oct-27 00:33N 54°46' E 007°28'1717.0
2014-Oct-26 23:34N 54°30' E 007°30'1616.3
2014-Oct-26 22:33N 54°14' E 007°38'1515.1
2014-Oct-26 21:33N 54°04' E 007°57'1413.6
2014-Oct-26 20:33N 53°60' E 008°19'1616.2
2014-Oct-26 19:33N 53°52' E 008°44'1615.9
2014-Oct-26 18:33N 53°53' E 009°11'1716.7
2014-Oct-26 17:33N 53°41' E 009°30'1212.4
2014-Oct-26 16:33N 53°33' E 009°47'5 5.1
2014-Oct-26 15:32N 53°32' E 009°55'0 0.0
2014-Oct-26 14:32N 53°32' E 009°55'0 0.0
2014-Oct-26 13:28N 53°32' E 009°55'0 0.0
2014-Oct-26 12:30N 53°32' E 009°55'0 0.0
2014-Oct-26 11:30N 53°32' E 009°55'0 0.0
2014-Oct-26 10:30N 53°32' E 009°55'0 0.0
2014-Oct-26 09:32N 53°32' E 009°55'0 0.0
2014-Oct-26 08:26N 53°32' E 009°55'0 0.0
2014-Oct-26 07:28N 53°32' E 009°55'0 0.0
2014-Oct-26 06:31N 53°32' E 009°55'0 0.0
2014-Oct-26 05:33N 53°32' E 009°55'0 0.0
2014-Oct-26 04:33N 53°32' E 009°55'0 0.0
2014-Oct-26 03:33N 53°32' E 009°55'0 0.0
2014-Oct-26 02:32N 53°32' E 009°55'0 0.0
2014-Oct-26 01:32N 53°32' E 009°55'0 0.0
2014-Oct-26 00:31N 53°32' E 009°55'0 0.0
2014-Oct-25 23:31N 53°32' E 009°55'0 0.0
2014-Oct-25 22:30N 53°32' E 009°55'0 0.0
2014-Oct-25 21:30N 53°32' E 009°55'0 0.0
2014-Oct-25 20:30N 53°32' E 009°55'0 0.0
2014-Oct-25 19:23N 53°32' E 009°55'0 0.0
2014-Oct-25 18:29N 53°32' E 009°55'0 0.0
2014-Oct-25 17:33N 53°32' E 009°55'0 0.0
2014-Oct-25 16:33N 53°32' E 009°55'0 0.0
2014-Oct-25 15:33N 53°32' E 009°55'0 0.0
2014-Oct-25 14:33N 53°32' E 009°55'0 0.0
2014-Oct-25 13:33N 53°32' E 009°55'0 0.0
2014-Oct-25 12:33N 53°32' E 009°55'0 0.0
2014-Oct-25 11:33N 53°32' E 009°55'1 0.5
2014-Oct-25 10:33N 53°32' E 009°55'7 6.7
2014-Oct-25 09:33N 53°34' E 009°44'1211.8
2014-Oct-25 08:32N 53°42' E 009°29'1413.9
2014-Oct-25 07:33N 53°53' E 009°14'1010.2
2014-Oct-25 06:33N 53°51' E 008°57'1010.2
2014-Oct-25 05:33N 53°54' E 008°41'1212.2
2014-Oct-25 04:34N 53°59' E 008°22'1211.9
2014-Oct-25 03:33N 53°59' E 008°02'9 9.4
2014-Oct-25 02:33N 53°57' E 007°46'4912.0
2014-Oct-24 22:30N 53°46' E 006°26'1718.3
2014-Oct-24 21:33N 53°41' E 005°58'1918.7
2014-Oct-24 20:33N 53°34' E 005°28'1918.9
2014-Oct-24 19:33N 53°28' E 004°58'1817.6
2014-Oct-24 18:33N 53°16' E 004°37'5618.6
2014-Oct-24 15:32N 52°26' E 003°53'1818.4
2014-Oct-24 14:33N 52°08' E 003°54'1212.5
2014-Oct-24 13:33N 51°58' E 004°05'1 1.2
2014-Oct-24 12:33N 51°57' E 004°04'0 0.0
2014-Oct-24 11:33N 51°57' E 004°04'0 0.0
2014-Oct-24 10:33N 51°57' E 004°04'0 0.0
2014-Oct-24 09:33N 51°57' E 004°04'0 0.0
2014-Oct-24 08:29N 51°57' E 004°04'0 0.0
2014-Oct-24 07:32N 51°57' E 004°04'0 0.0
2014-Oct-24 06:31N 51°57' E 004°04'0 0.0
2014-Oct-24 05:31N 51°57' E 004°04'0 0.0
2014-Oct-24 04:33N 51°57' E 004°04'0 0.0
2014-Oct-24 03:33N 51°57' E 004°04'0 0.0
2014-Oct-24 02:33N 51°57' E 004°04'0 0.0
2014-Oct-24 01:32N 51°57' E 004°04'0 0.0
2014-Oct-24 00:33N 51°57' E 004°04'1 0.5
2014-Oct-23 23:33N 51°57' E 004°05'6 5.7
2014-Oct-23 22:33N 52°00' E 003°57'10 9.9
2014-Oct-23 21:33N 51°57' E 003°42'7 6.9
2014-Oct-23 20:33N 51°54' E 003°32'0 0.1
2014-Oct-23 19:32N 51°54' E 003°32'0 0.0
2014-Oct-23 17:25N 51°54' E 003°32'0 0.0
2014-Oct-23 15:12N 51°54' E 003°32'0 0.0
2014-Oct-23 14:33N 51°54' E 003°32'5 3.8
2014-Oct-23 13:20N 51°55' E 003°24'3016.8
2014-Oct-23 11:33N 51°38' E 002°44'1616.4
2014-Oct-23 10:34N 51°22' E 002°46'1514.4
2014-Oct-23 09:31N 51°23' E 003°10'3 2.9
2014-Oct-23 08:33N 51°20' E 003°12'0 0.0
2014-Oct-23 07:32N 51°20' E 003°12'0 0.0
2014-Oct-23 06:23N 51°20' E 003°12'0 0.0
2014-Oct-23 05:32N 51°20' E 003°12'0 0.0
2014-Oct-23 04:13N 51°20' E 003°12'0 0.0
2014-Oct-23 03:22N 51°20' E 003°12'0 0.0
2014-Oct-23 02:27N 51°20' E 003°12'0 0.0
2014-Oct-23 01:30N 51°20' E 003°12'0 0.0
2014-Oct-23 00:32N 51°20' E 003°12'0 0.0
2014-Oct-22 23:26N 51°20' E 003°12'0 0.0
2014-Oct-22 22:29N 51°20' E 003°12'0 0.0
2014-Oct-22 21:25N 51°20' E 003°12'0 0.0
2014-Oct-22 20:31N 51°20' E 003°12'0 0.0
2014-Oct-22 19:33N 51°20' E 003°12'0 0.0
2014-Oct-22 18:33N 51°20' E 003°12'0 0.0
2014-Oct-22 17:33N 51°20' E 003°12'0 0.0
2014-Oct-22 16:34N 51°20' E 003°12'0 0.0
2014-Oct-22 15:33N 51°20' E 003°12'0 0.0
2014-Oct-22 14:34N 51°20' E 003°12'0 0.3
2014-Oct-22 13:33N 51°20' E 003°12'1010.1
2014-Oct-22 12:34N 51°23' E 002°56'9 8.6
2014-Oct-22 11:33N 51°27' E 002°44'3 2.9
2014-Oct-22 10:33N 51°30' E 002°42'4 3.7
2014-Oct-22 09:33N 51°27' E 002°40'  
Track history (hours):
 
Tides and Currents Weather Stations Pressure Air Temp Water Temp Dewpoint Dewpoint Depression Visibility Wind Speed Wind Dir Waves Ship Positions

Jonni Ritscher

Last reported at 2014-Nov-01 09:17 UTC. Time now 2014-Nov-01 11:41 UTC.
Position N 59°42' E 023°44'.

Length 178 m; draft 10 m.

Type: Ship. MMSI: 636091136.

Date/timePositionNaut miles runAvg speedWind from/ knotsBaromVisibWave heightAir tempDewpointWater temp
2014-Nov-01 09:17N 59°42' E 023°44'1317.3
2014-Nov-01 08:31N 59°46' E 024°09'1717.3
2014-Nov-01 07:33N 59°49' E 024°41'4117.3
2014-Nov-01 05:12N 59°57' E 026°01'1317.4
2014-Nov-01 04:27N 60°00' E 026°26'1616.9
2014-Nov-01 03:32N 59°60' E 026°57'9813.3
2014-Oct-31 20:07N 59°53' E 030°13'0 0.0
2014-Oct-31 08:03N 59°54' E 030°14'0 0.1
2014-Oct-31 06:21N 59°53' E 030°13'1 1.3
2014-Oct-31 05:33N 59°53' E 030°11'0 0.0
2014-Oct-31 02:31N 59°53' E 030°11'0 0.0
2014-Oct-31 01:25N 59°53' E 030°11'0 0.0
2014-Oct-31 00:21N 59°53' E 030°11'0 0.0
2014-Oct-30 21:05N 59°53' E 030°11'0 0.0
2014-Oct-30 20:29N 59°53' E 030°11'0 0.0
2014-Oct-30 19:28N 59°53' E 030°11'0 0.0
2014-Oct-30 18:28N 59°53' E 030°11'0 0.0
2014-Oct-30 17:33N 59°53' E 030°11'0 0.1
2014-Oct-30 16:33N 59°53' E 030°12'0 0.0
2014-Oct-30 15:33N 59°53' E 030°12'1 1.5
2014-Oct-30 14:32N 59°54' E 030°09'78 3.0
2014-Oct-29 12:28N 60°08' E 027°36'1819.7
2014-Oct-29 11:33N 59°58' E 027°06'1919.4
2014-Oct-29 10:33N 59°58' E 026°27'6120.3
2014-Oct-29 07:33N 59°44' E 024°29'2020.3
2014-Oct-29 06:33N 59°38' E 023°50'2020.4
2014-Oct-29 05:33N 59°31' E 023°12'2020.0
2014-Oct-29 04:32N 59°24' E 022°34'2320.3
2014-Oct-29 03:23N 59°09' E 021°60'1820.8
2014-Oct-29 02:32N 58°57' E 021°34'4320.6
2014-Oct-29 00:27N 58°23' E 020°45'1920.5
2014-Oct-28 23:31N 58°08' E 020°23'3020.6
2014-Oct-28 22:03N 57°44' E 019°49'1020.5
2014-Oct-28 21:33N 57°36' E 019°37'2120.5
2014-Oct-28 20:33N 57°20' E 019°14'2120.7
2014-Oct-28 19:33N 57°03' E 018°51'2020.4
2014-Oct-28 18:33N 56°47' E 018°27'2120.4
2014-Oct-28 17:33N 56°35' E 017°58'2020.4
2014-Oct-28 16:33N 56°22' E 017°29'2120.3
2014-Oct-28 15:32N 56°09' E 016°59'2020.4
2014-Oct-28 14:32N 55°58' E 016°30'2020.5
2014-Oct-28 13:33N 55°48' E 015°58'2020.3
2014-Oct-28 12:33N 55°38' E 015°27'2020.5
2014-Oct-28 11:33N 55°28' E 014°55'2020.1
2014-Oct-28 10:33N 55°16' E 014°27'2020.3
2014-Oct-28 09:33N 55°00' E 014°04'2020.3
2014-Oct-28 08:33N 54°54' E 013°30'1817.5
2014-Oct-28 07:33N 54°49' E 013°01'1818.1
2014-Oct-28 06:33N 54°41' E 012°33'1716.8
2014-Oct-28 05:32N 54°28' E 012°13'1716.3
2014-Oct-28 04:30N 54°24' E 011°45'1717.7
2014-Oct-28 03:33N 54°32' E 011°19'1817.1
2014-Oct-28 02:30N 54°41' E 010°53'1616.5
2014-Oct-28 01:33N 54°57' E 010°57'1616.7
2014-Oct-28 00:33N 55°13' E 011°06'4715.7
2014-Oct-27 21:32N 55°60' E 011°02'1616.5
2014-Oct-27 20:33N 56°13' E 011°19'1817.0
2014-Oct-27 19:30N 56°29' E 011°35'1515.7
2014-Oct-27 18:33N 56°42' E 011°48'1615.7
2014-Oct-27 17:33N 56°57' E 011°44'1616.3
2014-Oct-27 16:34N 57°13' E 011°34'1616.2
2014-Oct-27 15:33N 57°28' E 011°23'1717.3
2014-Oct-27 14:34N 57°39' E 010°60'1717.2
2014-Oct-27 13:33N 57°49' E 010°32'1918.5
2014-Oct-27 12:33N 57°43' E 009°59'13717.2
2014-Oct-27 04:34N 55°54' E 007°26'1717.2
2014-Oct-27 03:33N 55°38' E 007°20'1717.2
2014-Oct-27 02:34N 55°21' E 007°25'1717.1
2014-Oct-27 01:33N 55°03' E 007°26'1717.0
2014-Oct-27 00:33N 54°46' E 007°28'1717.0
2014-Oct-26 23:34N 54°30' E 007°30'1616.3
2014-Oct-26 22:33N 54°14' E 007°38'1515.1
2014-Oct-26 21:33N 54°04' E 007°57'1413.6
2014-Oct-26 20:33N 53°60' E 008°19'1616.2
2014-Oct-26 19:33N 53°52' E 008°44'1615.9
2014-Oct-26 18:33N 53°53' E 009°11'1716.7
2014-Oct-26 17:33N 53°41' E 009°30'1212.4
2014-Oct-26 16:33N 53°33' E 009°47'5 5.1
2014-Oct-26 15:32N 53°32' E 009°55'0 0.0
2014-Oct-26 14:32N 53°32' E 009°55'0 0.0
2014-Oct-26 13:28N 53°32' E 009°55'0 0.0
2014-Oct-26 12:30N 53°32' E 009°55'0 0.0
2014-Oct-26 11:30N 53°32' E 009°55'0 0.0
2014-Oct-26 10:30N 53°32' E 009°55'0 0.0
2014-Oct-26 09:32N 53°32' E 009°55'0 0.0
2014-Oct-26 08:26N 53°32' E 009°55'0 0.0
2014-Oct-26 07:28N 53°32' E 009°55'0 0.0
2014-Oct-26 06:31N 53°32' E 009°55'0 0.0
2014-Oct-26 05:33N 53°32' E 009°55'0 0.0
2014-Oct-26 04:33N 53°32' E 009°55'0 0.0
2014-Oct-26 03:33N 53°32' E 009°55'0 0.0
2014-Oct-26 02:32N 53°32' E 009°55'0 0.0
2014-Oct-26 01:32N 53°32' E 009°55'0 0.0
2014-Oct-26 00:31N 53°32' E 009°55'0 0.0
2014-Oct-25 23:31N 53°32' E 009°55'0 0.0
2014-Oct-25 22:30N 53°32' E 009°55'0 0.0
2014-Oct-25 21:30N 53°32' E 009°55'0 0.0
2014-Oct-25 20:30N 53°32' E 009°55'0 0.0
2014-Oct-25 19:23N 53°32' E 009°55'0 0.0
2014-Oct-25 18:29N 53°32' E 009°55'0 0.0
2014-Oct-25 17:33N 53°32' E 009°55'0 0.0
2014-Oct-25 16:33N 53°32' E 009°55'0 0.0
2014-Oct-25 15:33N 53°32' E 009°55'0 0.0
2014-Oct-25 14:33N 53°32' E 009°55'0 0.0
2014-Oct-25 13:33N 53°32' E 009°55'0 0.0
2014-Oct-25 12:33N 53°32' E 009°55'0 0.0
2014-Oct-25 11:33N 53°32' E 009°55'1 0.5
2014-Oct-25 10:33N 53°32' E 009°55'7 6.7
2014-Oct-25 09:33N 53°34' E 009°44'1211.8
2014-Oct-25 08:32N 53°42' E 009°29'1413.9
2014-Oct-25 07:33N 53°53' E 009°14'1010.2
2014-Oct-25 06:33N 53°51' E 008°57'1010.2
2014-Oct-25 05:33N 53°54' E 008°41'1212.2
2014-Oct-25 04:34N 53°59' E 008°22'1211.9
2014-Oct-25 03:33N 53°59' E 008°02'9 9.4
2014-Oct-25 02:33N 53°57' E 007°46'4912.0
2014-Oct-24 22:30N 53°46' E 006°26'1718.3
2014-Oct-24 21:33N 53°41' E 005°58'1918.7
2014-Oct-24 20:33N 53°34' E 005°28'1918.9
2014-Oct-24 19:33N 53°28' E 004°58'1817.6
2014-Oct-24 18:33N 53°16' E 004°37'5618.6
2014-Oct-24 15:32N 52°26' E 003°53'1818.4
2014-Oct-24 14:33N 52°08' E 003°54'1212.5
2014-Oct-24 13:33N 51°58' E 004°05'1 1.2
2014-Oct-24 12:33N 51°57' E 004°04'0 0.0
2014-Oct-24 11:33N 51°57' E 004°04'0 0.0
2014-Oct-24 10:33N 51°57' E 004°04'0 0.0
2014-Oct-24 09:33N 51°57' E 004°04'0 0.0
2014-Oct-24 08:29N 51°57' E 004°04'0 0.0
2014-Oct-24 07:32N 51°57' E 004°04'0 0.0
2014-Oct-24 06:31N 51°57' E 004°04'0 0.0
2014-Oct-24 05:31N 51°57' E 004°04'0 0.0
2014-Oct-24 04:33N 51°57' E 004°04'0 0.0
2014-Oct-24 03:33N 51°57' E 004°04'0 0.0
2014-Oct-24 02:33N 51°57' E 004°04'0 0.0
2014-Oct-24 01:32N 51°57' E 004°04'0 0.0
2014-Oct-24 00:33N 51°57' E 004°04'1 0.5
2014-Oct-23 23:33N 51°57' E 004°05'6 5.7
2014-Oct-23 22:33N 52°00' E 003°57'10 9.9
2014-Oct-23 21:33N 51°57' E 003°42'7 6.9
2014-Oct-23 20:33N 51°54' E 003°32'0 0.1
2014-Oct-23 19:32N 51°54' E 003°32'0 0.0
2014-Oct-23 17:25N 51°54' E 003°32'0 0.0
2014-Oct-23 15:12N 51°54' E 003°32'0 0.0
2014-Oct-23 14:33N 51°54' E 003°32'5 3.8
2014-Oct-23 13:20N 51°55' E 003°24'3016.8
2014-Oct-23 11:33N 51°38' E 002°44'1616.4
2014-Oct-23 10:34N 51°22' E 002°46'1514.4
2014-Oct-23 09:31N 51°23' E 003°10'3 2.9
2014-Oct-23 08:33N 51°20' E 003°12'0 0.0
2014-Oct-23 07:32N 51°20' E 003°12'0 0.0
2014-Oct-23 06:23N 51°20' E 003°12'0 0.0
2014-Oct-23 05:32N 51°20' E 003°12'0 0.0
2014-Oct-23 04:13N 51°20' E 003°12'0 0.0
2014-Oct-23 03:22N 51°20' E 003°12'0 0.0
2014-Oct-23 02:27N 51°20' E 003°12'0 0.0
2014-Oct-23 01:30N 51°20' E 003°12'0 0.0
2014-Oct-23 00:32N 51°20' E 003°12'0 0.0
2014-Oct-22 23:26N 51°20' E 003°12'0 0.0
2014-Oct-22 22:29N 51°20' E 003°12'0 0.0
2014-Oct-22 21:25N 51°20' E 003°12'0 0.0
2014-Oct-22 20:31N 51°20' E 003°12'0 0.0
2014-Oct-22 19:33N 51°20' E 003°12'0 0.0
2014-Oct-22 18:33N 51°20' E 003°12'0 0.0
2014-Oct-22 17:33N 51°20' E 003°12'0 0.0
2014-Oct-22 16:34N 51°20' E 003°12'0 0.0
2014-Oct-22 15:33N 51°20' E 003°12'0 0.0
2014-Oct-22 14:34N 51°20' E 003°12'0 0.3
2014-Oct-22 13:33N 51°20' E 003°12'1010.1
2014-Oct-22 12:34N 51°23' E 002°56'9 8.6
2014-Oct-22 11:33N 51°27' E 002°44'3 2.9
2014-Oct-22 10:33N 51°30' E 002°42'4 3.7
2014-Oct-22 09:33N 51°27' E 002°40'  

Dump ship's entire track history